sensor_id;sensor_type;location;lat;lon;timestamp;pressure;altitude;pressure_sealevel;temperature;humidity
5413;BME280;2729;50.056;8.678;2023-01-26T00:01:12;101042.44;;;3.16;100.00
5413;BME280;2729;50.056;8.678;2023-01-26T00:03:38;101036.16;;;3.01;100.00
5413;BME280;2729;50.056;8.678;2023-01-26T00:06:06;101032.03;;;2.65;100.00
5413;BME280;2729;50.056;8.678;2023-01-26T00:08:41;101027.59;;;3.03;100.00
5413;BME280;2729;50.056;8.678;2023-01-26T00:11:09;101023.94;;;2.90;100.00
5413;BME280;2729;50.056;8.678;2023-01-26T00:13:36;101022.91;;;2.82;100.00
5413;BME280;2729;50.056;8.678;2023-01-26T00:16:02;101012.69;;;2.87;100.00
5413;BME280;2729;50.056;8.678;2023-01-26T00:18:29;101013.69;;;2.94;100.00
5413;BME280;2729;50.056;8.678;2023-01-26T00:21:00;101011.16;;;2.97;100.00
5413;BME280;2729;50.056;8.678;2023-01-26T00:23:28;101000.63;;;2.84;100.00
5413;BME280;2729;50.056;8.678;2023-01-26T00:25:55;101005.59;;;2.74;100.00
5413;BME280;2729;50.056;8.678;2023-01-26T00:28:21;101004.88;;;2.82;100.00
5413;BME280;2729;50.056;8.678;2023-01-26T00:30:47;101004.84;;;2.81;100.00
5413;BME280;2729;50.056;8.678;2023-01-26T00:33:13;101005.44;;;2.66;100.00
5413;BME280;2729;50.056;8.678;2023-01-26T00:35:39;101003.75;;;2.68;100.00
5413;BME280;2729;50.056;8.678;2023-01-26T00:38:11;100996.28;;;2.82;100.00
5413;BME280;2729;50.056;8.678;2023-01-26T00:40:37;101000.63;;;2.84;100.00
5413;BME280;2729;50.056;8.678;2023-01-26T00:43:03;100999.88;;;2.90;100.00
5413;BME280;2729;50.056;8.678;2023-01-26T00:45:29;100998.59;;;2.68;100.00
5413;BME280;2729;50.056;8.678;2023-01-26T00:47:55;100998.78;;;2.77;100.00
5413;BME280;2729;50.056;8.678;2023-01-26T00:50:21;100992.66;;;2.72;100.00
5413;BME280;2729;50.056;8.678;2023-01-26T00:52:48;101006.31;;;2.67;100.00
5413;BME280;2729;50.056;8.678;2023-01-26T00:55:15;101003.63;;;2.61;100.00
5413;BME280;2729;50.056;8.678;2023-01-26T00:57:40;101002.06;;;2.70;100.00
5413;BME280;2729;50.056;8.678;2023-01-26T01:00:07;101000.81;;;2.51;100.00
5413;BME280;2729;50.056;8.678;2023-01-26T01:02:33;101006.75;;;2.47;100.00
5413;BME280;2729;50.056;8.678;2023-01-26T01:04:59;101003.28;;;2.45;100.00
5413;BME280;2729;50.056;8.678;2023-01-26T01:07:25;100999.34;;;2.63;100.00
5413;BME280;2729;50.056;8.678;2023-01-26T01:09:51;100998.28;;;2.53;100.00
5413;BME280;2729;50.056;8.678;2023-01-26T01:12:17;101003.81;;;2.71;100.00
5413;BME280;2729;50.056;8.678;2023-01-26T01:14:43;100999.53;;;2.72;100.00
5413;BME280;2729;50.056;8.678;2023-01-26T01:17:09;101005.03;;;2.46;100.00
5413;BME280;2729;50.056;8.678;2023-01-26T01:19:35;100996.38;;;2.43;100.00
5413;BME280;2729;50.056;8.678;2023-01-26T01:22:01;100998.09;;;2.44;100.00
5413;BME280;2729;50.056;8.678;2023-01-26T01:24:27;100999.66;;;2.36;100.00
5413;BME280;2729;50.056;8.678;2023-01-26T01:26:53;100998.28;;;2.53;100.00
5413;BME280;2729;50.056;8.678;2023-01-26T01:29:19;101001.28;;;2.73;100.00
5413;BME280;2729;50.056;8.678;2023-01-26T01:31:45;101002.34;;;2.42;100.00
5413;BME280;2729;50.056;8.678;2023-01-26T01:34:11;101011.88;;;2.46;100.00
5413;BME280;2729;50.056;8.678;2023-01-26T01:36:37;101002.53;;;2.51;100.00
5413;BME280;2729;50.056;8.678;2023-01-26T01:39:03;100993.06;;;2.50;100.00
5413;BME280;2729;50.056;8.678;2023-01-26T01:41:29;100992.69;;;2.74;100.00
5413;BME280;2729;50.056;8.678;2023-01-26T01:44:15;100998.69;;;2.73;100.00
5413;BME280;2729;50.056;8.678;2023-01-26T01:46:45;100988.44;;;2.32;100.00
5413;BME280;2729;50.056;8.678;2023-01-26T01:49:18;100989.91;;;2.63;100.00
5413;BME280;2729;50.056;8.678;2023-01-26T01:51:53;100997.25;;;2.45;100.00
5413;BME280;2729;50.056;8.678;2023-01-26T01:54:29;100997.31;;;2.48;100.00
5413;BME280;2729;50.056;8.678;2023-01-26T01:57:00;100993.75;;;2.41;100.00
5413;BME280;2729;50.056;8.678;2023-01-26T01:59:29;100989.44;;;2.40;100.00
5413;BME280;2729;50.056;8.678;2023-01-26T02:01:56;100981.97;;;2.52;100.00
5413;BME280;2729;50.056;8.678;2023-01-26T02:04:22;100980.06;;;2.44;100.00
5413;BME280;2729;50.056;8.678;2023-01-26T02:06:51;100991.09;;;2.37;100.00
5413;BME280;2729;50.056;8.678;2023-01-26T02:09:21;100972.50;;;2.51;100.00
5413;BME280;2729;50.056;8.678;2023-01-26T02:12:10;100978.00;;;2.68;100.00
5413;BME280;2729;50.056;8.678;2023-01-26T02:14:37;100968.25;;;2.55;100.00
5413;BME280;2729;50.056;8.678;2023-01-26T02:17:04;100973.19;;;2.43;100.00
5413;BME280;2729;50.056;8.678;2023-01-26T02:22:07;100962.09;;;2.47;100.00
5413;BME280;2729;50.056;8.678;2023-01-26T02:24:36;100969.38;;;2.66;100.00
5413;BME280;2729;50.056;8.678;2023-01-26T02:27:04;100972.34;;;2.44;100.00
5413;BME280;2729;50.056;8.678;2023-01-26T02:29:32;100971.19;;;2.28;100.00
5413;BME280;2729;50.056;8.678;2023-01-26T02:32:00;100963.84;;;2.48;100.00
5413;BME280;2729;50.056;8.678;2023-01-26T02:34:26;100962.31;;;2.14;100.00
5413;BME280;2729;50.056;8.678;2023-01-26T02:36:57;100961.81;;;2.32;100.00
5413;BME280;2729;50.056;8.678;2023-01-26T02:42:12;100966.91;;;2.29;100.00
5413;BME280;2729;50.056;8.678;2023-01-26T02:44:56;100963.38;;;2.25;100.00
5413;BME280;2729;50.056;8.678;2023-01-26T02:47:22;100958.06;;;2.16;100.00
5413;BME280;2729;50.056;8.678;2023-01-26T02:49:48;100952.50;;;1.96;100.00
5413;BME280;2729;50.056;8.678;2023-01-26T02:52:21;100955.47;;;2.16;100.00
5413;BME280;2729;50.056;8.678;2023-01-26T02:54:54;100942.75;;;2.23;100.00
5413;BME280;2729;50.056;8.678;2023-01-26T02:57:39;100940.00;;;2.14;100.00
5413;BME280;2729;50.056;8.678;2023-01-26T03:00:08;100933.78;;;2.03;100.00
5413;BME280;2729;50.056;8.678;2023-01-26T03:02:35;100931.56;;;2.21;100.00
5413;BME280;2729;50.056;8.678;2023-01-26T03:05:02;100933.97;;;1.72;100.00
5413;BME280;2729;50.056;8.678;2023-01-26T03:07:29;100929.31;;;1.94;100.00
5413;BME280;2729;50.056;8.678;2023-01-26T03:09:55;100921.56;;;1.93;100.00
5413;BME280;2729;50.056;8.678;2023-01-26T03:12:24;100919.31;;;1.68;100.00
5413;BME280;2729;50.056;8.678;2023-01-26T03:14:50;100920.91;;;2.03;100.00
5413;BME280;2729;50.056;8.678;2023-01-26T03:17:35;100916.78;;;2.11;100.00
5413;BME280;2729;50.056;8.678;2023-01-26T03:20:04;100912.47;;;2.10;100.00
5413;BME280;2729;50.056;8.678;2023-01-26T03:22:48;100920.00;;;2.01;100.00
5413;BME280;2729;50.056;8.678;2023-01-26T03:25:33;100918.47;;;2.11;100.00
5413;BME280;2729;50.056;8.678;2023-01-26T03:28:18;100919.19;;;2.04;100.00
5413;BME280;2729;50.056;8.678;2023-01-26T03:30:49;100918.22;;;1.97;100.00
5413;BME280;2729;50.056;8.678;2023-01-26T03:33:18;100916.16;;;1.81;100.00
5413;BME280;2729;50.056;8.678;2023-01-26T03:35:45;100924.25;;;1.99;100.00
5413;BME280;2729;50.056;8.678;2023-01-26T03:38:11;100914.06;;;2.04;100.00
5413;BME280;2729;50.056;8.678;2023-01-26T03:40:47;100907.34;;;1.70;100.00
5413;BME280;2729;50.056;8.678;2023-01-26T03:43:31;100907.59;;;1.82;100.00
5413;BME280;2729;50.056;8.678;2023-01-26T03:46:16;100901.19;;;2.04;100.00
5413;BME280;2729;50.056;8.678;2023-01-26T03:49:02;100904.97;;;2.22;100.00
5413;BME280;2729;50.056;8.678;2023-01-26T03:51:50;100901.50;;;2.20;100.00
5413;BME280;2729;50.056;8.678;2023-01-26T03:54:35;100905.50;;;2.05;100.00
5413;BME280;2729;50.056;8.678;2023-01-26T03:57:20;100898.66;;;2.07;100.00
5413;BME280;2729;50.056;8.678;2023-01-26T03:59:47;100911.63;;;2.11;100.00
5413;BME280;2729;50.056;8.678;2023-01-26T04:02:17;100899.63;;;2.12;100.00
5413;BME280;2729;50.056;8.678;2023-01-26T04:05:03;100891.16;;;2.17;100.00
5413;BME280;2729;50.056;8.678;2023-01-26T04:07:53;100888.06;;;1.91;100.00
5413;BME280;2729;50.056;8.678;2023-01-26T04:10:37;100886.41;;;1.93;100.00
5413;BME280;2729;50.056;8.678;2023-01-26T04:13:04;100884.94;;;2.06;100.00
5413;BME280;2729;50.056;8.678;2023-01-26T04:15:58;100876.81;;;2.32;100.00
5413;BME280;2729;50.056;8.678;2023-01-26T04:18:42;100885.81;;;2.08;100.00
5413;BME280;2729;50.056;8.678;2023-01-26T04:21:29;100871.41;;;2.18;100.00
5413;BME280;2729;50.056;8.678;2023-01-26T04:23:56;100885.75;;;2.05;100.00
5413;BME280;2729;50.056;8.678;2023-01-26T04:26:25;100879.00;;;2.10;100.00
5413;BME280;2729;50.056;8.678;2023-01-26T04:28:52;100881.16;;;1.89;100.00
5413;BME280;2729;50.056;8.678;2023-01-26T04:31:18;100876.84;;;1.88;100.00
5413;BME280;2729;50.056;8.678;2023-01-26T04:33:48;100873.78;;;2.07;100.00
5413;BME280;2729;50.056;8.678;2023-01-26T04:36:14;100879.03;;;2.12;100.00
5413;BME280;2729;50.056;8.678;2023-01-26T04:38:44;100871.06;;;2.00;100.00
5413;BME280;2729;50.056;8.678;2023-01-26T04:41:12;100872.69;;;1.94;100.00
5413;BME280;2729;50.056;8.678;2023-01-26T04:43:43;100868.94;;;2.22;100.00
5413;BME280;2729;50.056;8.678;2023-01-26T04:46:10;100868.63;;;2.06;100.00
5413;BME280;2729;50.056;8.678;2023-01-26T04:48:38;100863.53;;;2.09;100.00
5413;BME280;2729;50.056;8.678;2023-01-26T04:51:06;100870.94;;;1.93;100.00
5413;BME280;2729;50.056;8.678;2023-01-26T04:53:33;100870.00;;;1.88;100.00
5413;BME280;2729;50.056;8.678;2023-01-26T04:55:59;100861.38;;;1.86;100.00
5413;BME280;2729;50.056;8.678;2023-01-26T04:58:25;100861.50;;;1.92;100.00
5413;BME280;2729;50.056;8.678;2023-01-26T05:00:56;100857.94;;;1.86;100.00
5413;BME280;2729;50.056;8.678;2023-01-26T05:03:24;100852.78;;;1.86;100.00
5413;BME280;2729;50.056;8.678;2023-01-26T05:05:52;100859.13;;;2.03;100.00
5413;BME280;2729;50.056;8.678;2023-01-26T05:08:20;100846.19;;;2.00;100.00
5413;BME280;2729;50.056;8.678;2023-01-26T05:10:47;100847.72;;;1.90;100.00
5413;BME280;2729;50.056;8.678;2023-01-26T05:13:20;100849.47;;;1.91;100.00
5413;BME280;2729;50.056;8.678;2023-01-26T05:16:05;100854.56;;;1.88;100.00
5413;BME280;2729;50.056;8.678;2023-01-26T05:18:55;100854.13;;;2.11;100.00
5413;BME280;2729;50.056;8.678;2023-01-26T05:21:41;100850.81;;;2.18;100.00
5413;BME280;2729;50.056;8.678;2023-01-26T05:24:09;100851.56;;;2.11;100.00
5413;BME280;2729;50.056;8.678;2023-01-26T05:26:47;100849.56;;;1.96;100.00
5413;BME280;2729;50.056;8.678;2023-01-26T05:29:33;100857.19;;;1.91;100.00
5413;BME280;2729;50.056;8.678;2023-01-26T05:32:00;100850.69;;;2.10;100.00
5413;BME280;2729;50.056;8.678;2023-01-26T05:34:26;100851.53;;;2.09;100.00
5413;BME280;2729;50.056;8.678;2023-01-26T05:36:52;100844.88;;;2.22;100.00
5413;BME280;2729;50.056;8.678;2023-01-26T05:39:18;100848.31;;;2.21;100.00
5413;BME280;2729;50.056;8.678;2023-01-26T05:41:45;100846.38;;;2.09;100.00
5413;BME280;2729;50.056;8.678;2023-01-26T05:44:24;100855.16;;;2.20;100.00
5413;BME280;2729;50.056;8.678;2023-01-26T05:46:55;100848.84;;;2.03;100.00
5413;BME280;2729;50.056;8.678;2023-01-26T05:49:21;100858.41;;;2.10;100.00
5413;BME280;2729;50.056;8.678;2023-01-26T05:51:47;100859.75;;;1.91;100.00
5413;BME280;2729;50.056;8.678;2023-01-26T05:54:14;100853.72;;;1.89;100.00
5413;BME280;2729;50.056;8.678;2023-01-26T05:56:41;100863.38;;;2.01;100.00
5413;BME280;2729;50.056;8.678;2023-01-26T05:59:07;100864.06;;;1.92;100.00
5413;BME280;2729;50.056;8.678;2023-01-26T06:01:33;100866.50;;;1.85;100.00
5413;BME280;2729;50.056;8.678;2023-01-26T06:04:02;100881.72;;;1.74;100.00
5413;BME280;2729;50.056;8.678;2023-01-26T06:06:35;100878.88;;;2.04;100.00
5413;BME280;2729;50.056;8.678;2023-01-26T06:09:22;100879.16;;;2.19;100.00
5413;BME280;2729;50.056;8.678;2023-01-26T06:12:15;100885.38;;;2.31;100.00
5413;BME280;2729;50.056;8.678;2023-01-26T06:14:57;100889.22;;;2.07;100.00
5413;BME280;2729;50.056;8.678;2023-01-26T06:17:30;100888.19;;;1.98;100.00
5413;BME280;2729;50.056;8.678;2023-01-26T06:19:58;100879.41;;;1.88;100.00
5413;BME280;2729;50.056;8.678;2023-01-26T06:22:24;100893.91;;;1.83;100.00
5413;BME280;2729;50.056;8.678;2023-01-26T06:24:51;100893.56;;;1.66;100.00
5413;BME280;2729;50.056;8.678;2023-01-26T06:27:17;100891.41;;;1.87;100.00
5413;BME280;2729;50.056;8.678;2023-01-26T06:29:44;100886.81;;;2.15;100.00
5413;BME280;2729;50.056;8.678;2023-01-26T06:32:12;100879.91;;;2.12;100.00
5413;BME280;2729;50.056;8.678;2023-01-26T06:34:38;100886.31;;;1.89;100.00
5413;BME280;2729;50.056;8.678;2023-01-26T06:37:05;100887.53;;;2.08;100.00
5413;BME280;2729;50.056;8.678;2023-01-26T06:39:35;100895.34;;;2.12;100.00
5413;BME280;2729;50.056;8.678;2023-01-26T06:42:01;100894.38;;;2.07;100.00
5413;BME280;2729;50.056;8.678;2023-01-26T06:44:28;100893.75;;;1.75;100.00
5413;BME280;2729;50.056;8.678;2023-01-26T06:46:54;100881.25;;;1.51;100.00
5413;BME280;2729;50.056;8.678;2023-01-26T06:49:20;100880.19;;;1.84;100.00
5413;BME280;2729;50.056;8.678;2023-01-26T06:51:52;100878.88;;;2.04;100.00
5413;BME280;2729;50.056;8.678;2023-01-26T06:54:25;100888.47;;;2.11;100.00
5413;BME280;2729;50.056;8.678;2023-01-26T06:57:11;100890.72;;;1.96;100.00
5413;BME280;2729;50.056;8.678;2023-01-26T06:59:46;100896.75;;;1.97;100.00
5413;BME280;2729;50.056;8.678;2023-01-26T07:02:18;100894.72;;;1.80;100.00
5413;BME280;2729;50.056;8.678;2023-01-26T07:04:45;100894.63;;;1.77;100.00
5413;BME280;2729;50.056;8.678;2023-01-26T07:07:12;100900.63;;;1.76;100.00
5413;BME280;2729;50.056;8.678;2023-01-26T07:09:38;100900.72;;;1.81;100.00
5413;BME280;2729;50.056;8.678;2023-01-26T07:12:04;100901.84;;;1.93;100.00
5413;BME280;2729;50.056;8.678;2023-01-26T07:14:31;100908.53;;;1.85;100.00
5413;BME280;2729;50.056;8.678;2023-01-26T07:16:57;100903.25;;;1.79;100.00
5413;BME280;2729;50.056;8.678;2023-01-26T07:19:22;100903.88;;;1.68;100.00
5413;BME280;2729;50.056;8.678;2023-01-26T07:21:50;100907.03;;;1.54;100.00
5413;BME280;2729;50.056;8.678;2023-01-26T07:24:16;100909.06;;;1.69;100.00
5413;BME280;2729;50.056;8.678;2023-01-26T07:26:42;100914.97;;;1.65;100.00
5413;BME280;2729;50.056;8.678;2023-01-26T07:29:07;100912.25;;;1.59;100.00
5413;BME280;2729;50.056;8.678;2023-01-26T07:31:33;100914.16;;;1.68;100.00
5413;BME280;2729;50.056;8.678;2023-01-26T07:33:59;100915.63;;;1.56;100.00
5413;BME280;2729;50.056;8.678;2023-01-26T07:36:25;100916.97;;;1.39;100.00
5413;BME280;2729;50.056;8.678;2023-01-26T07:38:51;100918.91;;;1.49;100.00
5413;BME280;2729;50.056;8.678;2023-01-26T07:41:17;100914.91;;;1.62;100.00
5413;BME280;2729;50.056;8.678;2023-01-26T07:43:43;100917.88;;;1.41;100.00
5413;BME280;2729;50.056;8.678;2023-01-26T07:46:09;100914.06;;;1.63;100.00
5413;BME280;2729;50.056;8.678;2023-01-26T07:48:35;100926.56;;;1.46;100.00
5413;BME280;2729;50.056;8.678;2023-01-26T07:51:02;100919.19;;;1.61;100.00
5413;BME280;2729;50.056;8.678;2023-01-26T07:53:29;100923.81;;;1.39;100.00
5413;BME280;2729;50.056;8.678;2023-01-26T07:56:08;100917.09;;;1.45;100.00
5413;BME280;2729;50.056;8.678;2023-01-26T07:58:34;100924.00;;;1.10;100.00
5413;BME280;2729;50.056;8.678;2023-01-26T08:01:09;100918.19;;;1.55;100.00
5413;BME280;2729;50.056;8.678;2023-01-26T08:03:35;100932.41;;;1.39;100.00
5413;BME280;2729;50.056;8.678;2023-01-26T08:06:03;100922.97;;;1.40;100.00
5413;BME280;2729;50.056;8.678;2023-01-26T08:08:29;100934.63;;;1.24;100.00
5413;BME280;2729;50.056;8.678;2023-01-26T08:10:59;100925.59;;;1.41;100.00
5413;BME280;2729;50.056;8.678;2023-01-26T08:13:26;100935.38;;;1.20;100.00
5413;BME280;2729;50.056;8.678;2023-01-26T08:15:53;100929.66;;;1.32;100.00
5413;BME280;2729;50.056;8.678;2023-01-26T08:18:19;100936.00;;;1.10;100.00
5413;BME280;2729;50.056;8.678;2023-01-26T08:20:52;100939.50;;;1.13;100.00
5413;BME280;2729;50.056;8.678;2023-01-26T08:23:19;100944.97;;;1.27;100.00
5413;BME280;2729;50.056;8.678;2023-01-26T08:25:45;100946.75;;;1.29;100.00
5413;BME280;2729;50.056;8.678;2023-01-26T08:28:12;100940.00;;;0.99;100.00
5413;BME280;2729;50.056;8.678;2023-01-26T08:30:38;100947.94;;;1.44;100.00
5413;BME280;2729;50.056;8.678;2023-01-26T08:33:04;100951.06;;;1.31;100.00
5413;BME280;2729;50.056;8.678;2023-01-26T08:35:31;100948.31;;;1.23;100.00
5413;BME280;2729;50.056;8.678;2023-01-26T08:37:57;100947.00;;;1.40;100.00
5413;BME280;2729;50.056;8.678;2023-01-26T08:40:24;100949.31;;;1.29;100.00
5413;BME280;2729;50.056;8.678;2023-01-26T08:42:51;100948.84;;;1.46;100.00
5413;BME280;2729;50.056;8.678;2023-01-26T08:45:17;100945.88;;;1.67;100.00
5413;BME280;2729;50.056;8.678;2023-01-26T08:47:43;100948.16;;;1.54;100.00
5413;BME280;2729;50.056;8.678;2023-01-26T08:50:10;100954.28;;;1.22;100.00
5413;BME280;2729;50.056;8.678;2023-01-26T08:52:37;100952.22;;;1.43;100.00
5413;BME280;2729;50.056;8.678;2023-01-26T08:55:03;100951.88;;;1.29;100.00
5413;BME280;2729;50.056;8.678;2023-01-26T08:57:29;100955.75;;;1.48;100.00
5413;BME280;2729;50.056;8.678;2023-01-26T08:59:55;100952.94;;;1.38;100.00
5413;BME280;2729;50.056;8.678;2023-01-26T09:02:21;100949.75;;;1.48;100.00
5413;BME280;2729;50.056;8.678;2023-01-26T09:04:47;100953.38;;;1.57;100.00
5413;BME280;2729;50.056;8.678;2023-01-26T09:07:14;100957.91;;;1.30;100.00
5413;BME280;2729;50.056;8.678;2023-01-26T09:09:40;100963.13;;;1.33;100.00
5413;BME280;2729;50.056;8.678;2023-01-26T09:12:06;100968.19;;;1.30;100.00
5413;BME280;2729;50.056;8.678;2023-01-26T09:14:31;100968.13;;;1.27;100.00
5413;BME280;2729;50.056;8.678;2023-01-26T09:16:57;100966.66;;;1.38;100.00
5413;BME280;2729;50.056;8.678;2023-01-26T09:19:23;100958.03;;;1.36;100.00
5413;BME280;2729;50.056;8.678;2023-01-26T09:21:53;100962.06;;;1.63;100.00
5413;BME280;2729;50.056;8.678;2023-01-26T09:24:20;100955.47;;;1.74;100.00
5413;BME280;2729;50.056;8.678;2023-01-26T09:26:48;100956.16;;;1.67;100.00
5413;BME280;2729;50.056;8.678;2023-01-26T09:29:14;100953.59;;;1.67;100.00
5413;BME280;2729;50.056;8.678;2023-01-26T09:31:40;100956.47;;;1.80;100.00
5413;BME280;2729;50.056;8.678;2023-01-26T09:34:06;100960.06;;;1.49;100.00
5413;BME280;2729;50.056;8.678;2023-01-26T09:36:32;100966.09;;;1.51;100.00
5413;BME280;2729;50.056;8.678;2023-01-26T09:38:58;100960.63;;;1.75;100.00
5413;BME280;2729;50.056;8.678;2023-01-26T09:41:55;100969.13;;;1.34;100.00
5413;BME280;2729;50.056;8.678;2023-01-26T09:44:30;100969.91;;;1.67;100.00
5413;BME280;2729;50.056;8.678;2023-01-26T09:47:19;100959.22;;;1.50;100.00
5413;BME280;2729;50.056;8.678;2023-01-26T09:49:59;100947.03;;;1.81;100.00
5413;BME280;2729;50.056;8.678;2023-01-26T09:52:47;100945.19;;;1.75;100.00
5413;BME280;2729;50.056;8.678;2023-01-26T09:55:18;100950.81;;;1.57;100.00
5413;BME280;2729;50.056;8.678;2023-01-26T09:58:04;100949.31;;;1.67;100.00
5413;BME280;2729;50.056;8.678;2023-01-26T10:00:46;100953.72;;;1.73;100.00
5413;BME280;2729;50.056;8.678;2023-01-26T10:03:24;100956.47;;;1.80;100.00
5413;BME280;2729;50.056;8.678;2023-01-26T10:08:50;100949.81;;;1.90;100.00
5413;BME280;2729;50.056;8.678;2023-01-26T10:11:32;100947.81;;;1.77;100.00
5413;BME280;2729;50.056;8.678;2023-01-26T10:16:34;100947.53;;;1.65;100.00
5413;BME280;2729;50.056;8.678;2023-01-26T10:19:08;100942.59;;;1.74;100.00
5413;BME280;2729;50.056;8.678;2023-01-26T10:21:39;100948.13;;;1.53;100.00
5413;BME280;2729;50.056;8.678;2023-01-26T10:24:08;100939.97;;;1.71;100.00
5413;BME280;2729;50.056;8.678;2023-01-26T10:26:42;100937.25;;;1.65;100.00
5413;BME280;2729;50.056;8.678;2023-01-26T10:29:12;100941.59;;;1.67;100.00
5413;BME280;2729;50.056;8.678;2023-01-26T10:31:43;100925.25;;;1.65;100.00
5413;BME280;2729;50.056;8.678;2023-01-26T10:34:24;100926.97;;;1.65;100.00
5413;BME280;2729;50.056;8.678;2023-01-26T10:36:55;100930.44;;;1.67;100.00
5413;BME280;2729;50.056;8.678;2023-01-26T10:39:23;100920.50;;;1.44;100.00
5413;BME280;2729;50.056;8.678;2023-01-26T10:41:57;100915.50;;;1.50;100.00
5413;BME280;2729;50.056;8.678;2023-01-26T10:44:31;100916.28;;;1.87;100.00
5413;BME280;2729;50.056;8.678;2023-01-26T10:47:03;100922.06;;;1.77;100.00
5413;BME280;2729;50.056;8.678;2023-01-26T10:49:31;100918.78;;;1.43;100.00
5413;BME280;2729;50.056;8.678;2023-01-26T10:52:15;100914.16;;;1.68;100.00
5413;BME280;2729;50.056;8.678;2023-01-26T10:54:43;100914.25;;;1.33;100.00
5413;BME280;2729;50.056;8.678;2023-01-26T10:57:27;100909.59;;;1.54;100.00
5413;BME280;2729;50.056;8.678;2023-01-26T11:00:02;100911.28;;;1.54;100.00
5413;BME280;2729;50.056;8.678;2023-01-26T11:02:34;100908.59;;;1.48;100.00
5413;BME280;2729;50.056;8.678;2023-01-26T11:07:37;100910.72;;;1.67;100.00
5413;BME280;2729;50.056;8.678;2023-01-26T11:10:29;100908.69;;;1.93;100.00
5413;BME280;2729;50.056;8.678;2023-01-26T11:13:12;100904.19;;;1.83;100.00
5413;BME280;2729;50.056;8.678;2023-01-26T11:15:40;100908.44;;;1.81;100.00
5413;BME280;2729;50.056;8.678;2023-01-26T11:18:20;100902.19;;;1.70;100.00
5413;BME280;2729;50.056;8.678;2023-01-26T11:21:06;100899.66;;;1.71;100.00
5413;BME280;2729;50.056;8.678;2023-01-26T11:23:51;100897.72;;;1.22;100.00
5413;BME280;2729;50.056;8.678;2023-01-26T11:35:12;100878.19;;;1.69;100.00
5413;BME280;2729;50.056;8.678;2023-01-26T11:37:46;100873.13;;;1.74;100.00
5413;BME280;2729;50.056;8.678;2023-01-26T11:40:31;100862.75;;;1.69;100.00
5413;BME280;2729;50.056;8.678;2023-01-26T11:43:37;100862.28;;;1.88;100.00
5413;BME280;2729;50.056;8.678;2023-01-26T11:49:24;100871.47;;;1.76;100.00
5413;BME280;2729;50.056;8.678;2023-01-26T11:52:13;100871.94;;;1.58;100.00
5413;BME280;2729;50.056;8.678;2023-01-26T11:55:23;100866.88;;;1.61;100.00
5413;BME280;2729;50.056;8.678;2023-01-26T11:58:01;100860.31;;;1.77;100.00
5413;BME280;2729;50.056;8.678;2023-01-26T12:00:43;100853.47;;;1.77;100.00
5413;BME280;2729;50.056;8.678;2023-01-26T12:05:54;100844.84;;;1.75;100.00
5413;BME280;2729;50.056;8.678;2023-01-26T12:08:25;100848.22;;;1.71;100.00
5413;BME280;2729;50.056;8.678;2023-01-26T12:13:38;100845.31;;;1.98;100.00
5413;BME280;2729;50.056;8.678;2023-01-26T12:16:17;100834.63;;;2.25;100.00
5413;BME280;2729;50.056;8.678;2023-01-26T12:18:52;100839.53;;;2.11;100.00
5413;BME280;2729;50.056;8.678;2023-01-26T12:21:21;100837.16;;;1.77;100.00
5413;BME280;2729;50.056;8.678;2023-01-26T12:23:58;100831.06;;;1.72;100.00
5413;BME280;2729;50.056;8.678;2023-01-26T12:26:31;100827.84;;;1.82;100.00
5413;BME280;2729;50.056;8.678;2023-01-26T12:42:18;100803.75;;;1.78;100.00
5413;BME280;2729;50.056;8.678;2023-01-26T12:44:49;100794.88;;;2.09;100.00
5413;BME280;2729;50.056;8.678;2023-01-26T12:47:39;100798.63;;;1.80;100.00
5413;BME280;2729;50.056;8.678;2023-01-26T12:52:45;100800.00;;;1.63;100.00
5413;BME280;2729;50.056;8.678;2023-01-26T12:58:03;100794.28;;;1.76;100.00
5413;BME280;2729;50.056;8.678;2023-01-26T13:00:36;100797.47;;;1.64;100.00
5413;BME280;2729;50.056;8.678;2023-01-26T13:03:12;100794.16;;;1.70;100.00
5413;BME280;2729;50.056;8.678;2023-01-26T13:10:59;100794.63;;;1.94;100.00
5413;BME280;2729;50.056;8.678;2023-01-26T13:13:31;100786.34;;;2.12;100.00
5413;BME280;2729;50.056;8.678;2023-01-26T13:18:48;100791.34;;;2.03;100.00
5413;BME280;2729;50.056;8.678;2023-01-26T13:23:59;100798.78;;;1.87;100.00
5413;BME280;2729;50.056;8.678;2023-01-26T13:31:59;100786.00;;;1.92;100.00
5413;BME280;2729;50.056;8.678;2023-01-26T13:34:28;100790.44;;;2.01;100.00
5413;BME280;2729;50.056;8.678;2023-01-26T13:37:02;100788.06;;;2.11;100.00
5413;BME280;2729;50.056;8.678;2023-01-26T13:39:34;100787.09;;;2.05;100.00
5413;BME280;2729;50.056;8.678;2023-01-26T13:42:09;100784.06;;;2.29;100.00
5413;BME280;2729;50.056;8.678;2023-01-26T13:44:43;100780.06;;;2.47;100.00
5413;BME280;2729;50.056;8.678;2023-01-26T13:47:16;100785.00;;;2.34;100.00
5413;BME280;2729;50.056;8.678;2023-01-26T13:49:43;100785.63;;;2.20;100.00
5413;BME280;2729;50.056;8.678;2023-01-26T13:52:30;100796.03;;;2.25;100.00
5413;BME280;2729;50.056;8.678;2023-01-26T13:54:56;100790.84;;;2.23;100.00
5413;BME280;2729;50.056;8.678;2023-01-26T13:57:28;100786.53;;;2.22;100.00
5413;BME280;2729;50.056;8.678;2023-01-26T13:59:59;100782.16;;;2.17;100.00
5413;BME280;2729;50.056;8.678;2023-01-26T14:02:27;100784.13;;;2.32;100.00
5413;BME280;2729;50.056;8.678;2023-01-26T14:04:56;100791.53;;;2.63;100.00
5413;BME280;2729;50.056;8.678;2023-01-26T14:07:32;100791.47;;;2.60;100.00
5413;BME280;2729;50.056;8.678;2023-01-26T14:10:00;100780.19;;;2.55;100.00
5413;BME280;2729;50.056;8.678;2023-01-26T14:12:31;100785.09;;;2.38;100.00
5413;BME280;2729;50.056;8.678;2023-01-26T14:15:00;100792.84;;;2.41;100.00
5413;BME280;2729;50.056;8.678;2023-01-26T14:19:57;100801.00;;;2.16;100.00
5413;BME280;2729;50.056;8.678;2023-01-26T14:22:27;100801.19;;;2.26;100.00
5413;BME280;2729;50.056;8.678;2023-01-26T14:24:54;100801.66;;;2.54;100.00
5413;BME280;2729;50.056;8.678;2023-01-26T14:27:34;100807.97;;;2.71;100.00
5413;BME280;2729;50.056;8.678;2023-01-26T14:30:01;100799.94;;;2.54;100.00
5413;BME280;2729;50.056;8.678;2023-01-26T14:32:29;100809.50;;;2.60;100.00
5413;BME280;2729;50.056;8.678;2023-01-26T14:34:58;100813.50;;;2.44;100.00
5413;BME280;2729;50.056;8.678;2023-01-26T14:37:25;100817.63;;;2.33;100.00
5413;BME280;2729;50.056;8.678;2023-01-26T14:42:39;100831.63;;;2.01;100.00